sensor_id;sensor_type;location;lat;lon;timestamp;pressure;altitude;pressure_sealevel;temperature
23992;BMP280;12205;50.600;4.608;2023-07-09T00:00:50;100409.00;;;23.95
23992;BMP280;12205;50.600;4.608;2023-07-09T00:03:18;100408.38;;;23.91
23992;BMP280;12205;50.600;4.608;2023-07-09T00:05:48;100410.03;;;23.88
23992;BMP280;12205;50.600;4.608;2023-07-09T00:08:25;100411.69;;;23.86
23992;BMP280;12205;50.600;4.608;2023-07-09T00:10:54;100405.91;;;23.84
23992;BMP280;12205;50.600;4.608;2023-07-09T00:13:22;100409.53;;;23.81
23992;BMP280;12205;50.600;4.608;2023-07-09T00:15:51;100407.69;;;23.78
23992;BMP280;12205;50.600;4.608;2023-07-09T00:18:18;100411.31;;;23.75
23992;BMP280;12205;50.600;4.608;2023-07-09T00:20:45;100408.28;;;23.73
23992;BMP280;12205;50.600;4.608;2023-07-09T00:23:14;100411.16;;;23.69
23992;BMP280;12205;50.600;4.608;2023-07-09T00:25:44;100419.47;;;23.65
23992;BMP280;12205;50.600;4.608;2023-07-09T00:28:13;100406.69;;;23.62
23992;BMP280;12205;50.600;4.608;2023-07-09T00:30:41;100411.84;;;23.60
23992;BMP280;12205;50.600;4.608;2023-07-09T00:33:12;100412.75;;;23.57
23992;BMP280;12205;50.600;4.608;2023-07-09T00:35:41;100411.69;;;23.55
23992;BMP280;12205;50.600;4.608;2023-07-09T00:38:14;100410.56;;;23.52
23992;BMP280;12205;50.600;4.608;2023-07-09T00:40:56;100409.94;;;23.48
23992;BMP280;12205;50.600;4.608;2023-07-09T00:43:30;100409.31;;;23.44
23992;BMP280;12205;50.600;4.608;2023-07-09T00:49:02;100410.78;;;23.36
23992;BMP280;12205;50.600;4.608;2023-07-09T00:51:34;100408.66;;;23.30
23992;BMP280;12205;50.600;4.608;2023-07-09T00:54:18;100407.22;;;23.26
23992;BMP280;12205;50.600;4.608;2023-07-09T00:56:52;100405.84;;;23.21
23992;BMP280;12205;50.600;4.608;2023-07-09T00:59:24;100402.78;;;23.19
23992;BMP280;12205;50.600;4.608;2023-07-09T01:01:56;100407.19;;;23.17
23992;BMP280;12205;50.600;4.608;2023-07-09T01:04:27;100404.56;;;23.13
23992;BMP280;12205;50.600;4.608;2023-07-09T01:06:56;100403.03;;;23.12
23992;BMP280;12205;50.600;4.608;2023-07-09T01:09:24;100406.66;;;23.09
23992;BMP280;12205;50.600;4.608;2023-07-09T01:11:54;100410.59;;;23.08
23992;BMP280;12205;50.600;4.608;2023-07-09T01:14:24;100409.50;;;23.05
23992;BMP280;12205;50.600;4.608;2023-07-09T01:16:56;100419.03;;;23.01
23992;BMP280;12205;50.600;4.608;2023-07-09T01:19:29;100417.19;;;22.98
23992;BMP280;12205;50.600;4.608;2023-07-09T01:22:00;100416.84;;;22.96
23992;BMP280;12205;50.600;4.608;2023-07-09T01:24:55;100415.00;;;22.93
23992;BMP280;12205;50.600;4.608;2023-07-09T01:27:32;100426.34;;;22.91
23992;BMP280;12205;50.600;4.608;2023-07-09T01:30:03;100421.00;;;22.87
23992;BMP280;12205;50.600;4.608;2023-07-09T01:32:32;100421.91;;;22.84
23992;BMP280;12205;50.600;4.608;2023-07-09T01:35:05;100425.50;;;22.81
23992;BMP280;12205;50.600;4.608;2023-07-09T01:37:36;100418.53;;;22.80
23992;BMP280;12205;50.600;4.608;2023-07-09T01:40:07;100416.97;;;22.79
23992;BMP280;12205;50.600;4.608;2023-07-09T01:42:36;100420.94;;;22.78
23992;BMP280;12205;50.600;4.608;2023-07-09T01:45:08;100418.63;;;22.77
23992;BMP280;12205;50.600;4.608;2023-07-09T01:47:37;100417.88;;;22.76
23992;BMP280;12205;50.600;4.608;2023-07-09T01:50:06;100414.06;;;22.74
23992;BMP280;12205;50.600;4.608;2023-07-09T01:52:36;100418.75;;;22.73
23992;BMP280;12205;50.600;4.608;2023-07-09T01:55:05;100412.97;;;22.71
23992;BMP280;12205;50.600;4.608;2023-07-09T01:57:33;100416.94;;;22.70
23992;BMP280;12205;50.600;4.608;2023-07-09T02:00:04;100418.13;;;22.69
23992;BMP280;12205;50.600;4.608;2023-07-09T02:02:40;100415.81;;;22.67
23992;BMP280;12205;50.600;4.608;2023-07-09T02:05:11;100413.56;;;22.66
23992;BMP280;12205;50.600;4.608;2023-07-09T02:07:41;100411.66;;;22.63
23992;BMP280;12205;50.600;4.608;2023-07-09T02:10:10;100415.16;;;22.63
23992;BMP280;12205;50.600;4.608;2023-07-09T02:12:38;100417.13;;;22.63
23992;BMP280;12205;50.600;4.608;2023-07-09T02:15:07;100413.66;;;22.62
23992;BMP280;12205;50.600;4.608;2023-07-09T02:17:34;100412.91;;;22.62
23992;BMP280;12205;50.600;4.608;2023-07-09T02:20:01;100415.28;;;22.60
23992;BMP280;12205;50.600;4.608;2023-07-09T02:22:30;100416.50;;;22.59
23992;BMP280;12205;50.600;4.608;2023-07-09T02:24:59;100419.22;;;22.59
23992;BMP280;12205;50.600;4.608;2023-07-09T02:27:26;100409.97;;;22.56
23992;BMP280;12205;50.600;4.608;2023-07-09T02:29:56;100413.91;;;22.55
23992;BMP280;12205;50.600;4.608;2023-07-09T02:32:26;100415.84;;;22.55
23992;BMP280;12205;50.600;4.608;2023-07-09T02:34:54;100411.59;;;22.54
23992;BMP280;12205;50.600;4.608;2023-07-09T02:37:25;100408.53;;;22.52
23992;BMP280;12205;50.600;4.608;2023-07-09T02:39:53;100413.97;;;22.52
23992;BMP280;12205;50.600;4.608;2023-07-09T02:42:23;100407.03;;;22.51
23992;BMP280;12205;50.600;4.608;2023-07-09T02:44:51;100415.19;;;22.51
23992;BMP280;12205;50.600;4.608;2023-07-09T02:47:19;100409.41;;;22.48
23992;BMP280;12205;50.600;4.608;2023-07-09T02:49:46;100413.69;;;22.50
23992;BMP280;12205;50.600;4.608;2023-07-09T02:52:14;100409.41;;;22.48
23992;BMP280;12205;50.600;4.608;2023-07-09T02:54:41;100408.66;;;22.48
23992;BMP280;12205;50.600;4.608;2023-07-09T02:57:08;100411.81;;;22.46
23992;BMP280;12205;50.600;4.608;2023-07-09T02:59:37;100407.59;;;22.45
23992;BMP280;12205;50.600;4.608;2023-07-09T03:02:04;100408.78;;;22.44
23992;BMP280;12205;50.600;4.608;2023-07-09T03:04:32;100406.50;;;22.43
23992;BMP280;12205;50.600;4.608;2023-07-09T03:06:59;100413.56;;;22.40
23992;BMP280;12205;50.600;4.608;2023-07-09T03:09:27;100410.50;;;22.38
23992;BMP280;12205;50.600;4.608;2023-07-09T03:11:54;100406.28;;;22.37
23992;BMP280;12205;50.600;4.608;2023-07-09T03:14:21;100407.47;;;22.36
23992;BMP280;12205;50.600;4.608;2023-07-09T03:16:50;100407.16;;;22.34
23992;BMP280;12205;50.600;4.608;2023-07-09T03:19:17;100411.06;;;22.33
23992;BMP280;12205;50.600;4.608;2023-07-09T03:21:44;100412.25;;;22.32
23992;BMP280;12205;50.600;4.608;2023-07-09T03:24:11;100407.69;;;22.29
23992;BMP280;12205;50.600;4.608;2023-07-09T03:26:41;100411.59;;;22.28
23992;BMP280;12205;50.600;4.608;2023-07-09T03:29:08;100403.13;;;22.26
23992;BMP280;12205;50.600;4.608;2023-07-09T03:31:35;100414.03;;;22.26
23992;BMP280;12205;50.600;4.608;2023-07-09T03:34:03;100410.94;;;22.24
23992;BMP280;12205;50.600;4.608;2023-07-09T03:36:31;100410.66;;;22.22
23992;BMP280;12205;50.600;4.608;2023-07-09T03:38:58;100407.94;;;22.22
23992;BMP280;12205;50.600;4.608;2023-07-09T03:41:25;100410.28;;;22.20
23992;BMP280;12205;50.600;4.608;2023-07-09T03:43:52;100409.56;;;22.19
23992;BMP280;12205;50.600;4.608;2023-07-09T03:46:19;100410.00;;;22.18
23992;BMP280;12205;50.600;4.608;2023-07-09T03:48:46;100411.19;;;22.17
23992;BMP280;12205;50.600;4.608;2023-07-09T03:51:17;100415.09;;;22.16
23992;BMP280;12205;50.600;4.608;2023-07-09T03:53:44;100413.56;;;22.15
23992;BMP280;12205;50.600;4.608;2023-07-09T03:56:11;100413.25;;;22.13
23992;BMP280;12205;50.600;4.608;2023-07-09T03:58:38;100417.50;;;22.14
23992;BMP280;12205;50.600;4.608;2023-07-09T04:01:06;100410.53;;;22.13
23992;BMP280;12205;50.600;4.608;2023-07-09T04:03:33;100419.16;;;22.11
23992;BMP280;12205;50.600;4.608;2023-07-09T04:06:00;100417.59;;;22.10
23992;BMP280;12205;50.600;4.608;2023-07-09T04:08:29;100416.84;;;22.10
23992;BMP280;12205;50.600;4.608;2023-07-09T04:11:00;100408.34;;;22.07
23992;BMP280;12205;50.600;4.608;2023-07-09T04:13:28;100411.06;;;22.07
23992;BMP280;12205;50.600;4.608;2023-07-09T04:15:55;100411.50;;;22.06
23992;BMP280;12205;50.600;4.608;2023-07-09T04:18:23;100410.31;;;22.07
23992;BMP280;12205;50.600;4.608;2023-07-09T04:20:51;100411.81;;;22.08
23992;BMP280;12205;50.600;4.608;2023-07-09T04:23:19;100409.06;;;22.08
23992;BMP280;12205;50.600;4.608;2023-07-09T04:25:47;100403.63;;;22.08
23992;BMP280;12205;50.600;4.608;2023-07-09T04:28:15;100403.63;;;22.08
23992;BMP280;12205;50.600;4.608;2023-07-09T04:30:48;100411.41;;;22.10
23992;BMP280;12205;50.600;4.608;2023-07-09T04:33:15;100402.03;;;22.11
23992;BMP280;12205;50.600;4.608;2023-07-09T04:35:44;100409.72;;;22.12
23992;BMP280;12205;50.600;4.608;2023-07-09T04:38:12;100401.16;;;22.14
23992;BMP280;12205;50.600;4.608;2023-07-09T04:40:40;100402.69;;;22.15
23992;BMP280;12205;50.600;4.608;2023-07-09T04:43:08;100407.66;;;22.16
23992;BMP280;12205;50.600;4.608;2023-07-09T04:45:35;100405.31;;;22.18
23992;BMP280;12205;50.600;4.608;2023-07-09T04:48:03;100410.66;;;22.22
23992;BMP280;12205;50.600;4.608;2023-07-09T04:50:31;100407.03;;;22.25
23992;BMP280;12205;50.600;4.608;2023-07-09T04:52:59;100405.44;;;22.27
23992;BMP280;12205;50.600;4.608;2023-07-09T04:55:26;100395.91;;;22.32
23992;BMP280;12205;50.600;4.608;2023-07-09T04:57:53;100405.94;;;22.35
23992;BMP280;12205;50.600;4.608;2023-07-09T05:00:23;100410.50;;;22.38
23992;BMP280;12205;50.600;4.608;2023-07-09T05:02:50;100407.56;;;22.33
23992;BMP280;12205;50.600;4.608;2023-07-09T05:05:17;100411.41;;;22.35
23992;BMP280;12205;50.600;4.608;2023-07-09T05:07:44;100407.47;;;22.36
23992;BMP280;12205;50.600;4.608;2023-07-09T05:10:13;100402.34;;;22.38
23992;BMP280;12205;50.600;4.608;2023-07-09T05:12:49;100403.31;;;22.44
23992;BMP280;12205;50.600;4.608;2023-07-09T05:15:17;100404.63;;;22.53
23992;BMP280;12205;50.600;4.608;2023-07-09T05:17:45;100402.88;;;22.59
23992;BMP280;12205;50.600;4.608;2023-07-09T05:20:13;100407.88;;;22.60
23992;BMP280;12205;50.600;4.608;2023-07-09T05:22:41;100408.75;;;22.70
23992;BMP280;12205;50.600;4.608;2023-07-09T05:25:08;100411.53;;;22.79
23992;BMP280;12205;50.600;4.608;2023-07-09T05:27:36;100411.31;;;22.86
23992;BMP280;12205;50.600;4.608;2023-07-09T05:30:04;100420.47;;;22.93
23992;BMP280;12205;50.600;4.608;2023-07-09T05:32:32;100408.41;;;23.03
23992;BMP280;12205;50.600;4.608;2023-07-09T05:35:00;100415.13;;;23.11
23992;BMP280;12205;50.600;4.608;2023-07-09T05:37:27;100412.50;;;23.20
23992;BMP280;12205;50.600;4.608;2023-07-09T05:39:54;100414.53;;;23.29
23992;BMP280;12205;50.600;4.608;2023-07-09T05:42:21;100412.19;;;23.40
23992;BMP280;12205;50.600;4.608;2023-07-09T05:44:49;100421.19;;;23.50
23992;BMP280;12205;50.600;4.608;2023-07-09T05:47:16;100421.25;;;23.59
23992;BMP280;12205;50.600;4.608;2023-07-09T05:49:43;100421.31;;;23.68
23992;BMP280;12205;50.600;4.608;2023-07-09T05:52:12;100429.53;;;23.78
23992;BMP280;12205;50.600;4.608;2023-07-09T05:54:39;100428.06;;;23.86
23992;BMP280;12205;50.600;4.608;2023-07-09T05:57:06;100435.97;;;23.93
23992;BMP280;12205;50.600;4.608;2023-07-09T05:59:34;100439.22;;;24.01
23992;BMP280;12205;50.600;4.608;2023-07-09T06:02:02;100437.56;;;24.03
23992;BMP280;12205;50.600;4.608;2023-07-09T06:04:29;100437.59;;;24.12
23992;BMP280;12205;50.600;4.608;2023-07-09T06:06:56;100440.81;;;24.20
23992;BMP280;12205;50.600;4.608;2023-07-09T06:09:24;100444.63;;;24.23
23992;BMP280;12205;50.600;4.608;2023-07-09T06:11:52;100443.69;;;24.26
23992;BMP280;12205;50.600;4.608;2023-07-09T06:14:19;100451.63;;;24.24
23992;BMP280;12205;50.600;4.608;2023-07-09T06:16:46;100454.34;;;24.33
23992;BMP280;12205;50.600;4.608;2023-07-09T06:19:13;100464.69;;;24.38
23992;BMP280;12205;50.600;4.608;2023-07-09T06:21:40;100467.16;;;24.45
23992;BMP280;12205;50.600;4.608;2023-07-09T06:24:08;100465.34;;;24.51
23992;BMP280;12205;50.600;4.608;2023-07-09T06:26:37;100467.78;;;24.59
23992;BMP280;12205;50.600;4.608;2023-07-09T06:29:05;100460.22;;;24.72
23992;BMP280;12205;50.600;4.608;2023-07-09T06:31:32;100467.22;;;24.82
23992;BMP280;12205;50.600;4.608;2023-07-09T06:33:59;100468.78;;;24.92
23992;BMP280;12205;50.600;4.608;2023-07-09T06:36:26;100475.13;;;24.99
23992;BMP280;12205;50.600;4.608;2023-07-09T06:38:53;100474.22;;;25.02
23992;BMP280;12205;50.600;4.608;2023-07-09T06:41:20;100467.53;;;25.12
23992;BMP280;12205;50.600;4.608;2023-07-09T06:43:49;100468.59;;;25.24
23992;BMP280;12205;50.600;4.608;2023-07-09T06:46:19;100465.09;;;25.32
23992;BMP280;12205;50.600;4.608;2023-07-09T06:48:46;100463.84;;;25.43
23992;BMP280;12205;50.600;4.608;2023-07-09T06:51:13;100467.53;;;25.49
23992;BMP280;12205;50.600;4.608;2023-07-09T06:53:41;100473.88;;;25.55
23992;BMP280;12205;50.600;4.608;2023-07-09T06:56:08;100473.88;;;25.64
23992;BMP280;12205;50.600;4.608;2023-07-09T06:58:36;100470.78;;;25.71
23992;BMP280;12205;50.600;4.608;2023-07-09T07:01:05;100463.19;;;25.75
23992;BMP280;12205;50.600;4.608;2023-07-09T07:03:33;100468.34;;;25.83
23992;BMP280;12205;50.600;4.608;2023-07-09T07:06:01;100471.03;;;25.92
23992;BMP280;12205;50.600;4.608;2023-07-09T07:08:28;100475.25;;;26.02
23992;BMP280;12205;50.600;4.608;2023-07-09T07:10:58;100474.94;;;26.09
23992;BMP280;12205;50.600;4.608;2023-07-09T07:13:28;100474.94;;;26.09
23992;BMP280;12205;50.600;4.608;2023-07-09T07:15:56;100480.06;;;26.16
23992;BMP280;12205;50.600;4.608;2023-07-09T07:18:24;100477.44;;;26.22
23992;BMP280;12205;50.600;4.608;2023-07-09T07:20:51;100477.56;;;26.28
23992;BMP280;12205;50.600;4.608;2023-07-09T07:23:19;100472.66;;;26.32
23992;BMP280;12205;50.600;4.608;2023-07-09T07:25:46;100485.09;;;26.42
23992;BMP280;12205;50.600;4.608;2023-07-09T07:28:14;100487.41;;;26.43
23992;BMP280;12205;50.600;4.608;2023-07-09T07:30:41;100484.41;;;26.56
23992;BMP280;12205;50.600;4.608;2023-07-09T07:33:09;100475.72;;;26.58
23992;BMP280;12205;50.600;4.608;2023-07-09T07:35:38;100466.09;;;26.62
23992;BMP280;12205;50.600;4.608;2023-07-09T07:38:05;100466.66;;;26.67
23992;BMP280;12205;50.600;4.608;2023-07-09T07:40:32;100465.91;;;26.66
23992;BMP280;12205;50.600;4.608;2023-07-09T07:43:00;100458.44;;;26.67
23992;BMP280;12205;50.600;4.608;2023-07-09T07:45:27;100459.78;;;26.71
23992;BMP280;12205;50.600;4.608;2023-07-09T07:47:54;100453.63;;;26.76
23992;BMP280;12205;50.600;4.608;2023-07-09T07:50:21;100462.56;;;26.86
23992;BMP280;12205;50.600;4.608;2023-07-09T07:52:49;100460.03;;;26.97
23992;BMP280;12205;50.600;4.608;2023-07-09T07:55:16;100465.88;;;27.05
23992;BMP280;12205;50.600;4.608;2023-07-09T07:57:45;100460.50;;;27.11
23992;BMP280;12205;50.600;4.608;2023-07-09T08:00:14;100463.56;;;27.13
23992;BMP280;12205;50.600;4.608;2023-07-09T08:02:41;100464.22;;;27.22
23992;BMP280;12205;50.600;4.608;2023-07-09T08:05:09;100474.34;;;27.31
23992;BMP280;12205;50.600;4.608;2023-07-09T08:07:36;100468.28;;;27.42
23992;BMP280;12205;50.600;4.608;2023-07-09T08:10:06;100470.66;;;27.49
23992;BMP280;12205;50.600;4.608;2023-07-09T08:12:33;100463.75;;;27.54
23992;BMP280;12205;50.600;4.608;2023-07-09T08:15:00;100467.53;;;27.56
23992;BMP280;12205;50.600;4.608;2023-07-09T08:17:27;100465.16;;;27.64
23992;BMP280;12205;50.600;4.608;2023-07-09T08:19:55;100464.28;;;27.73
23992;BMP280;12205;50.600;4.608;2023-07-09T08:22:22;100470.44;;;27.82
23992;BMP280;12205;50.600;4.608;2023-07-09T08:24:50;100460.31;;;27.74
23992;BMP280;12205;50.600;4.608;2023-07-09T08:27:19;100463.69;;;27.83
23992;BMP280;12205;50.600;4.608;2023-07-09T08:29:46;100468.03;;;27.90
23992;BMP280;12205;50.600;4.608;2023-07-09T08:32:14;100465.56;;;27.92
23992;BMP280;12205;50.600;4.608;2023-07-09T08:34:42;100460.91;;;27.98
23992;BMP280;12205;50.600;4.608;2023-07-09T08:37:09;100471.03;;;28.07
23992;BMP280;12205;50.600;4.608;2023-07-09T08:39:36;100457.06;;;28.10
23992;BMP280;12205;50.600;4.608;2023-07-09T08:42:09;100456.31;;;28.10
23992;BMP280;12205;50.600;4.608;2023-07-09T08:44:59;100449.94;;;28.19
23992;BMP280;12205;50.600;4.608;2023-07-09T08:47:37;100457.09;;;28.31
23992;BMP280;12205;50.600;4.608;2023-07-09T08:50:13;100452.88;;;28.35
23992;BMP280;12205;50.600;4.608;2023-07-09T08:52:43;100456.47;;;28.42
23992;BMP280;12205;50.600;4.608;2023-07-09T08:55:16;100453.06;;;28.47
23992;BMP280;12205;50.600;4.608;2023-07-09T08:57:45;100452.63;;;28.54
23992;BMP280;12205;50.600;4.608;2023-07-09T09:00:19;100446.13;;;28.57
23992;BMP280;12205;50.600;4.608;2023-07-09T09:02:54;100445.31;;;28.71
23992;BMP280;12205;50.600;4.608;2023-07-09T09:05:24;100446.94;;;28.84
23992;BMP280;12205;50.600;4.608;2023-07-09T09:07:58;100451.03;;;28.94
23992;BMP280;12205;50.600;4.608;2023-07-09T09:10:33;100450.38;;;29.05
23992;BMP280;12205;50.600;4.608;2023-07-09T09:13:15;100451.66;;;29.09
23992;BMP280;12205;50.600;4.608;2023-07-09T09:15:46;100455.22;;;29.15
23992;BMP280;12205;50.600;4.608;2023-07-09T09:18:21;100463.09;;;29.28
23992;BMP280;12205;50.600;4.608;2023-07-09T09:20:55;100464.13;;;29.31
23992;BMP280;12205;50.600;4.608;2023-07-09T09:23:48;100459.41;;;29.37
23992;BMP280;12205;50.600;4.608;2023-07-09T09:26:24;100465.34;;;29.30
23992;BMP280;12205;50.600;4.608;2023-07-09T09:28:53;100470.97;;;29.41
23992;BMP280;12205;50.600;4.608;2023-07-09T09:31:24;100471.25;;;29.49
23992;BMP280;12205;50.600;4.608;2023-07-09T09:33:51;100477.53;;;29.49
23992;BMP280;12205;50.600;4.608;2023-07-09T09:36:22;100478.06;;;29.53
23992;BMP280;12205;50.600;4.608;2023-07-09T09:38:50;100480.31;;;29.55
23992;BMP280;12205;50.600;4.608;2023-07-09T09:41:20;100473.34;;;29.59
23992;BMP280;12205;50.600;4.608;2023-07-09T09:43:51;100473.66;;;29.73
23992;BMP280;12205;50.600;4.608;2023-07-09T09:46:22;100465.22;;;29.82
23992;BMP280;12205;50.600;4.608;2023-07-09T09:48:51;100460.53;;;29.94
23992;BMP280;12205;50.600;4.608;2023-07-09T09:51:20;100456.81;;;30.02
23992;BMP280;12205;50.600;4.608;2023-07-09T09:53:49;100473.63;;;30.10
23992;BMP280;12205;50.600;4.608;2023-07-09T09:56:23;100474.94;;;30.26
23992;BMP280;12205;50.600;4.608;2023-07-09T09:58:53;100476.78;;;30.40
23992;BMP280;12205;50.600;4.608;2023-07-09T10:01:28;100483.56;;;30.50
23992;BMP280;12205;50.600;4.608;2023-07-09T10:03:57;100491.63;;;30.60
23992;BMP280;12205;50.600;4.608;2023-07-09T10:06:35;100487.88;;;30.68
23992;BMP280;12205;50.600;4.608;2023-07-09T10:09:15;100493.16;;;30.72
23992;BMP280;12205;50.600;4.608;2023-07-09T10:11:50;100489.66;;;30.88
23992;BMP280;12205;50.600;4.608;2023-07-09T10:14:33;100492.19;;;30.97
23992;BMP280;12205;50.600;4.608;2023-07-09T10:17:16;100488.66;;;31.03
23992;BMP280;12205;50.600;4.608;2023-07-09T10:19:54;100498.25;;;31.13
23992;BMP280;12205;50.600;4.608;2023-07-09T10:22:39;100489.44;;;31.20
23992;BMP280;12205;50.600;4.608;2023-07-09T10:25:25;100508.78;;;31.09
23992;BMP280;12205;50.600;4.608;2023-07-09T10:28:41;100524.53;;;30.74
23992;BMP280;12205;50.600;4.608;2023-07-09T10:31:17;100525.06;;;30.79
23992;BMP280;12205;50.600;4.608;2023-07-09T10:34:01;100536.13;;;30.90
23992;BMP280;12205;50.600;4.608;2023-07-09T10:36:50;100534.88;;;31.08
23992;BMP280;12205;50.600;4.608;2023-07-09T10:39:28;100544.44;;;31.18
23992;BMP280;12205;50.600;4.608;2023-07-09T10:42:00;100550.22;;;31.26
23992;BMP280;12205;50.600;4.608;2023-07-09T10:44:33;100558.22;;;31.01
23992;BMP280;12205;50.600;4.608;2023-07-09T10:47:06;100563.22;;;30.97
23992;BMP280;12205;50.600;4.608;2023-07-09T10:49:40;100568.97;;;30.93
23992;BMP280;12205;50.600;4.608;2023-07-09T10:52:20;100575.53;;;30.90
23992;BMP280;12205;50.600;4.608;2023-07-09T10:54:58;100580.66;;;30.55
23992;BMP280;12205;50.600;4.608;2023-07-09T10:57:32;100586.06;;;30.26
23992;BMP280;12205;50.600;4.608;2023-07-09T11:00:11;100581.06;;;29.93
23992;BMP280;12205;50.600;4.608;2023-07-09T11:02:43;100583.94;;;29.73
23992;BMP280;12205;50.600;4.608;2023-07-09T11:05:12;100582.66;;;29.42
23992;BMP280;12205;50.600;4.608;2023-07-09T11:07:47;100590.81;;;29.31
23992;BMP280;12205;50.600;4.608;2023-07-09T11:10:23;100583.13;;;29.14
23992;BMP280;12205;50.600;4.608;2023-07-09T11:12:58;100591.84;;;29.07
23992;BMP280;12205;50.600;4.608;2023-07-09T11:15:34;100590.88;;;28.90
23992;BMP280;12205;50.600;4.608;2023-07-09T11:18:06;100587.84;;;28.88
23992;BMP280;12205;50.600;4.608;2023-07-09T11:20:41;100571.19;;;28.76
23992;BMP280;12205;50.600;4.608;2023-07-09T11:23:19;100577.94;;;28.75
23992;BMP280;12205;50.600;4.608;2023-07-09T11:25:49;100566.41;;;28.71
23992;BMP280;12205;50.600;4.608;2023-07-09T11:28:34;100560.72;;;28.60
23992;BMP280;12205;50.600;4.608;2023-07-09T11:31:07;100547.06;;;28.45
23992;BMP280;12205;50.600;4.608;2023-07-09T11:33:46;100543.53;;;28.45
23992;BMP280;12205;50.600;4.608;2023-07-09T11:36:26;100548.38;;;28.35
23992;BMP280;12205;50.600;4.608;2023-07-09T11:38:53;100553.34;;;28.31
23992;BMP280;12205;50.600;4.608;2023-07-09T11:41:40;100568.94;;;28.19
23992;BMP280;12205;50.600;4.608;2023-07-09T11:44:17;100570.56;;;28.11
23992;BMP280;12205;50.600;4.608;2023-07-09T11:46:58;100594.44;;;27.75
23992;BMP280;12205;50.600;4.608;2023-07-09T11:49:46;100602.63;;;27.55
23992;BMP280;12205;50.600;4.608;2023-07-09T11:52:25;100605.69;;;27.47
23992;BMP280;12205;50.600;4.608;2023-07-09T11:54:54;100615.25;;;27.37
23992;BMP280;12205;50.600;4.608;2023-07-09T11:57:21;100650.44;;;27.24
23992;BMP280;12205;50.600;4.608;2023-07-09T11:59:48;100693.19;;;27.16
23992;BMP280;12205;50.600;4.608;2023-07-09T12:02:19;100715.03;;;26.77
23992;BMP280;12205;50.600;4.608;2023-07-09T12:04:52;100736.44;;;26.54
23992;BMP280;12205;50.600;4.608;2023-07-09T12:07:24;100727.66;;;26.22
23992;BMP280;12205;50.600;4.608;2023-07-09T12:09:51;100753.25;;;26.01
23992;BMP280;12205;50.600;4.608;2023-07-09T12:12:21;100780.91;;;25.66
23992;BMP280;12205;50.600;4.608;2023-07-09T12:14:50;100790.38;;;25.34
23992;BMP280;12205;50.600;4.608;2023-07-09T12:17:18;100725.66;;;25.18
23992;BMP280;12205;50.600;4.608;2023-07-09T12:19:45;100710.97;;;24.84
23992;BMP280;12205;50.600;4.608;2023-07-09T12:22:20;100685.19;;;24.41
23992;BMP280;12205;50.600;4.608;2023-07-09T12:24:50;100665.47;;;24.02
23992;BMP280;12205;50.600;4.608;2023-07-09T12:27:24;100638.19;;;23.67
23992;BMP280;12205;50.600;4.608;2023-07-09T12:29:54;100605.19;;;23.27
23992;BMP280;12205;50.600;4.608;2023-07-09T12:32:22;100575.00;;;22.96
23992;BMP280;12205;50.600;4.608;2023-07-09T12:34:54;100564.41;;;22.72
23992;BMP280;12205;50.600;4.608;2023-07-09T12:37:32;100545.84;;;22.67
23992;BMP280;12205;50.600;4.608;2023-07-09T12:40:00;100516.47;;;22.62
23992;BMP280;12205;50.600;4.608;2023-07-09T12:42:31;100482.13;;;22.64
23992;BMP280;12205;50.600;4.608;2023-07-09T12:44:59;100461.84;;;22.65
23992;BMP280;12205;50.600;4.608;2023-07-09T12:47:27;100444.72;;;22.65
23992;BMP280;12205;50.600;4.608;2023-07-09T12:50:03;100456.13;;;22.73
23992;BMP280;12205;50.600;4.608;2023-07-09T12:52:46;100432.69;;;22.75
23992;BMP280;12205;50.600;4.608;2023-07-09T12:55:21;100427.03;;;22.82
23992;BMP280;12205;50.600;4.608;2023-07-09T12:57:48;100418.91;;;22.92
23992;BMP280;12205;50.600;4.608;2023-07-09T13:00:18;100428.72;;;23.02
23992;BMP280;12205;50.600;4.608;2023-07-09T13:02:52;100422.13;;;23.12
23992;BMP280;12205;50.600;4.608;2023-07-09T13:05:23;100423.41;;;23.20
23992;BMP280;12205;50.600;4.608;2023-07-09T13:07:54;100456.28;;;23.17
23992;BMP280;12205;50.600;4.608;2023-07-09T13:10:28;100459.53;;;23.24
23992;BMP280;12205;50.600;4.608;2023-07-09T13:13:01;100455.41;;;23.42
23992;BMP280;12205;50.600;4.608;2023-07-09T13:15:31;100457.81;;;23.62
23992;BMP280;12205;50.600;4.608;2023-07-09T13:18:08;100450.81;;;23.83
23992;BMP280;12205;50.600;4.608;2023-07-09T13:20:39;100429.03;;;24.01
23992;BMP280;12205;50.600;4.608;2023-07-09T13:23:13;100412.44;;;24.18
23992;BMP280;12205;50.600;4.608;2023-07-09T13:25:41;100387.84;;;24.36
23992;BMP280;12205;50.600;4.608;2023-07-09T13:28:16;100374.09;;;24.58
23992;BMP280;12205;50.600;4.608;2023-07-09T13:30:44;100353.09;;;24.83
23992;BMP280;12205;50.600;4.608;2023-07-09T13:33:11;100328.03;;;25.03
23992;BMP280;12205;50.600;4.608;2023-07-09T13:35:38;100320.34;;;25.25
23992;BMP280;12205;50.600;4.608;2023-07-09T13:38:13;100295.31;;;25.51
23992;BMP280;12205;50.600;4.608;2023-07-09T13:40:43;100284.22;;;25.78
23992;BMP280;12205;50.600;4.608;2023-07-09T13:43:13;100297.16;;;26.02
23992;BMP280;12205;50.600;4.608;2023-07-09T13:45:41;100340.19;;;26.11
23992;BMP280;12205;50.600;4.608;2023-07-09T13:48:14;100385.59;;;26.27
23992;BMP280;12205;50.600;4.608;2023-07-09T13:50:44;100417.03;;;26.40
23992;BMP280;12205;50.600;4.608;2023-07-09T13:53:20;100469.06;;;26.50
23992;BMP280;12205;50.600;4.608;2023-07-09T13:55:49;100460.25;;;26.70
23992;BMP280;12205;50.600;4.608;2023-07-09T13:58:20;100441.22;;;26.90
23992;BMP280;12205;50.600;4.608;2023-07-09T14:00:50;100432.88;;;27.14
23992;BMP280;12205;50.600;4.608;2023-07-09T14:03:25;100424.19;;;27.45
23992;BMP280;12205;50.600;4.608;2023-07-09T14:05:53;100430.84;;;27.74
23992;BMP280;12205;50.600;4.608;2023-07-09T14:08:21;100442.44;;;27.99
23992;BMP280;12205;50.600;4.608;2023-07-09T14:10:49;100453.59;;;28.30
23992;BMP280;12205;50.600;4.608;2023-07-09T14:13:20;100496.78;;;28.65
23992;BMP280;12205;50.600;4.608;2023-07-09T14:15:48;100506.88;;;29.00
23992;BMP280;12205;50.600;4.608;2023-07-09T14:18:19;100506.78;;;29.41